Portada
METAR-TAF:

METAR-TAF

Aeroports :

Guaymas, Mèxic

latitud: 27-58N, longitud: 110-56W, altitud: 27 m

Observació

L'informe es va fer fa 11 hores i 35 minuts, a les 01:45 UTC
Vent calma
Temperatura 31°C
Humitat 66%
Pressió 1004 hPa
Visibilitat: 16.1 km
Cel clar

METAR: MMGM 170145Z 00000KT 10SM SKC 31/24 A2966

Hora: 06:20 (13:20 UTC)

Pronòstic

L'informe es va fer fa 8 hores i 15 minuts, a les 05:05 UTC
Pronòstic vàlid del 17 a les 06 UTC al 18 a les 06 UTC
Vent kt del Nord
Visibilitat: 10 km
Cel clar
A partir de les 17 a les 1800 UTC
Vent 10 kt del Oest
Visibilitat: 10 km
Cel clar
Evolucionant progressivament
l' 18 a les 02 UTC al 18 a les 04 UTC
Vent 5 kt del Sud/Sud-Oest

TAF: MMGM 170505Z 1706/1806 00000KT P6SM SKC FM171800 26010KT P6SM SKC BECMG 1802/1804 20005KT

Observacions i pronòstics meteorològics de més de 4000 aeroports (METAR i TAF).

Les estacions disponibles són els punts grocs i vermells al mapa.

Posi el ratolí al punt desitjat per veure el nom de l'estació.

Feu clic per veure les observacions i els pronòstics meteorològics.

Per canviar el mapa: feu clic els botons verds amb una creu de color negre per apropar; al botó verd amb un guió per allunyar la imatge; o en les fletxes verdes per a mapes adjacents.


METAR-TAF: